Time;durP1;ratioP1;P1;durP2;ratioP2;P2;SDS_P1;SDS_P2;PMS_P1;PMS_P2;Temp;Humidity;BMP_temperature;BMP_pressure;BME280_temperature;BME280_humidity;BME280_pressure;Samples;Min_cycle;Max_cycle;Signal;HPM_P1;HPM_P2
2022/12/08 00:00:06;;;;;;;6.10;1.00;;;;;;;;;;5016612;28;20419;-69
2022/12/08 00:02:32;;;;;;;6.72;0.80;;;;;;;;;;5008560;28;20545;-70
2022/12/08 00:10:28;;;;;;;2.70;0.90;;;;;;;;;;5010444;28;20149;-70
2022/12/08 00:12:54;;;;;;;7.13;1.10;;;;;;;;;;5004487;28;20062;-70
2022/12/08 00:15:20;;;;;;;7.90;0.82;;;;;;;;;;5006507;28;20060;-70
2022/12/08 00:17:46;;;;;;;4.60;0.82;;;;;;;;;;5001839;28;20048;-69
2022/12/08 00:20:12;;;;;;;8.88;1.15;;;;;;;;;;5010645;28;20042;-69
2022/12/08 00:22:38;;;;;;;4.75;1.15;;;;;;;;;;5010849;28;20066;-69
2022/12/08 00:25:04;;;;;;;6.40;1.67;;;;;;;;;;5013726;28;20092;-69
2022/12/08 00:27:30;;;;;;;4.63;1.50;;;;;;;;;;5007883;28;20029;-69
2022/12/08 00:29:56;;;;;;;3.50;0.60;;;;;;;;;;5007981;28;20041;-69
2022/12/08 00:32:22;;;;;;;9.55;0.85;;;;;;;;;;4981881;28;20081;-69
2022/12/08 00:34:48;;;;;;;3.55;0.90;;;;;;;;;;5012939;28;20091;-70
2022/12/08 00:37:15;;;;;;;7.22;1.08;;;;;;;;;;5009617;28;20103;-69
2022/12/08 00:39:41;;;;;;;4.75;0.70;;;;;;;;;;5011151;28;20036;-69
2022/12/08 00:42:13;;;;;;;3.78;0.52;;;;;;;;;;5012550;28;20060;-70
2022/12/08 00:44:39;;;;;;;;;;;;;;;;;;5007368;28;20048;-69
2022/12/08 00:47:05;;;;;;;4.13;0.73;;;;;;;;;;5010038;28;19964;-68
2022/12/08 00:49:31;;;;;;;3.10;1.13;;;;;;;;;;5008440;28;20389;-69
2022/12/08 00:51:57;;;;;;;2.13;0.70;;;;;;;;;;5008735;28;20030;-71
2022/12/08 00:54:23;;;;;;;3.20;1.02;;;;;;;;;;5008905;28;20038;-70
2022/12/08 00:56:50;;;;;;;4.78;0.70;;;;;;;;;;5006827;28;20034;-69
2022/12/08 00:59:16;;;;;;;2.75;0.93;;;;;;;;;;5003487;28;20096;-71
2022/12/08 01:01:43;;;;;;;6.20;0.95;;;;;;;;;;4988915;28;20469;-69
2022/12/08 01:04:12;;;;;;;3.85;0.93;;;;;;;;;;4979527;28;20482;-70
2022/12/08 01:06:38;;;;;;;2.60;0.60;;;;;;;;;;4999374;28;20239;-69
2022/12/08 01:09:05;;;;;;;1.58;0.50;;;;;;;;;;5006412;28;20029;-70
2022/12/08 01:11:32;;;;;;;2.60;0.82;;;;;;;;;;5011072;28;20120;-70
2022/12/08 01:13:58;;;;;;;2.95;0.60;;;;;;;;;;4997624;28;20042;-69
2022/12/08 01:16:26;;;;;;;2.40;0.50;;;;;;;;;;4993825;28;20035;-70
2022/12/08 01:18:52;;;;;;;7.53;0.80;;;;;;;;;;4992101;28;20030;-69
2022/12/08 01:21:19;;;;;;;3.90;0.82;;;;;;;;;;4987822;28;20030;-71
2022/12/08 01:23:45;;;;;;;4.82;0.80;;;;;;;;;;4986686;28;20046;-70
2022/12/08 01:26:12;;;;;;;7.20;1.27;;;;;;;;;;4991563;28;20034;-69
2022/12/08 01:28:38;;;;;;;1.13;0.80;;;;;;;;;;4994450;28;20127;-69
2022/12/08 01:31:04;;;;;;;8.18;1.98;;;;;;;;;;4993429;28;20148;-71
2022/12/08 01:33:31;;;;;;;1.30;0.35;;;;;;;;;;4999772;28;20041;-69
2022/12/08 01:36:03;;;;;;;8.15;0.73;;;;;;;;;;4974273;28;20026;-69
2022/12/08 01:38:29;;;;;;;8.00;0.70;;;;;;;;;;4991615;28;20530;-69
2022/12/08 01:40:55;;;;;;;4.95;0.70;;;;;;;;;;4988717;28;20446;-70
2022/12/08 01:43:21;;;;;;;3.85;0.60;;;;;;;;;;4994838;28;20408;-69
2022/12/08 01:45:47;;;;;;;8.05;0.90;;;;;;;;;;4991983;28;20113;-69
2022/12/08 01:48:25;;;;;;;1.75;0.55;;;;;;;;;;4996738;28;20038;-68
2022/12/08 01:50:52;;;;;;;2.60;0.68;;;;;;;;;;4994226;28;20030;-69
2022/12/08 01:53:26;;;;;;;3.78;0.50;;;;;;;;;;4995171;28;20371;-69
2022/12/08 01:55:55;;;;;;;7.82;1.23;;;;;;;;;;4989585;28;20023;-69
2022/12/08 01:58:26;;;;;;;4.65;0.47;;;;;;;;;;4995286;28;20403;-69
2022/12/08 02:00:53;;;;;;;4.20;0.80;;;;;;;;;;4988636;28;20046;-70
2022/12/08 02:03:30;;;;;;;5.53;0.70;;;;;;;;;;4997368;28;20026;-68
2022/12/08 02:05:56;;;;;;;3.70;0.95;;;;;;;;;;4993181;28;20038;-70
2022/12/08 02:08:23;;;;;;;3.75;0.73;;;;;;;;;;4990314;28;20033;-70
2022/12/08 02:10:51;;;;;;;6.85;0.80;;;;;;;;;;4995416;28;20475;-70
2022/12/08 02:13:19;;;;;;;1.90;0.50;;;;;;;;;;4968631;28;20375;-70
2022/12/08 02:15:48;;;;;;;1.85;0.82;;;;;;;;;;4990296;28;20550;-69
2022/12/08 02:18:23;;;;;;;1.75;0.30;;;;;;;;;;4985109;28;20026;-69
2022/12/08 02:20:52;;;;;;;3.25;0.47;;;;;;;;;;4988398;28;20026;-69
2022/12/08 02:23:38;;;;;;;6.63;0.85;;;;;;;;;;4985961;28;20145;-69
2022/12/08 02:26:16;;;;;;;2.58;0.47;;;;;;;;;;4977104;28;20054;-69
2022/12/08 02:29:18;;;;;;;3.70;1.02;;;;;;;;;;4984155;28;20125;-69
2022/12/08 02:31:50;;;;;;;1.08;0.40;;;;;;;;;;4928573;29;20103;-69
2022/12/08 02:34:16;;;;;;;3.53;1.23;;;;;;;;;;4978536;28;20062;-69
2022/12/08 02:37:08;;;;;;;1.20;0.40;;;;;;;;;;4987619;28;20467;-69
2022/12/08 02:39:52;;;;;;;2.63;0.63;;;;;;;;;;4981718;28;20045;-70
2022/12/08 02:42:31;;;;;;;0.93;0.40;;;;;;;;;;4983432;28;20300;-69
2022/12/08 02:45:01;;;;;;;2.17;0.30;;;;;;;;;;4989246;28;20026;-68
2022/12/08 02:47:27;;;;;;;4.20;0.57;;;;;;;;;;4968939;28;20026;-69
2022/12/08 02:49:57;;;;;;;3.03;0.50;;;;;;;;;;4988086;28;20035;-69
2022/12/08 02:52:23;;;;;;;4.03;0.73;;;;;;;;;;4984707;28;20041;-70
2022/12/08 02:55:04;;;;;;;3.97;0.80;;;;;;;;;;4988002;28;20034;-69
2022/12/08 02:57:56;;;;;;;1.88;0.40;;;;;;;;;;4984105;28;20417;-69
2022/12/08 03:00:24;;;;;;;5.10;0.50;;;;;;;;;;4985756;28;20046;-68
2022/12/08 03:03:05;;;;;;;3.83;0.70;;;;;;;;;;4986102;28;20398;-69
2022/12/08 03:05:31;;;;;;;1.90;0.43;;;;;;;;;;4986587;28;20026;-70
2022/12/08 03:08:12;;;;;;;1.13;0.38;;;;;;;;;;4987067;28;20022;-70
2022/12/08 03:10:46;;;;;;;4.20;0.38;;;;;;;;;;4985571;28;20034;-69
2022/12/08 03:13:25;;;;;;;4.85;0.50;;;;;;;;;;5001197;28;20108;-69
2022/12/08 03:15:53;;;;;;;2.28;0.65;;;;;;;;;;5005826;28;20034;-68
2022/12/08 03:18:22;;;;;;;0.90;0.40;;;;;;;;;;5010179;28;20067;-69
2022/12/08 03:20:49;;;;;;;5.10;1.88;;;;;;;;;;5005244;28;20022;-68
2022/12/08 03:23:17;;;;;;;1.75;0.77;;;;;;;;;;5003670;28;20042;-69
2022/12/08 03:25:48;;;;;;;1.70;0.50;;;;;;;;;;5005168;28;20442;-67
2022/12/08 03:28:15;;;;;;;1.85;0.40;;;;;;;;;;5005815;28;20049;-70
2022/12/08 03:30:43;;;;;;;1.95;0.40;;;;;;;;;;5003546;28;20048;-69
2022/12/08 03:33:22;;;;;;;1.95;0.85;;;;;;;;;;5003813;28;20073;-70
2022/12/08 03:35:49;;;;;;;0.98;0.30;;;;;;;;;;5002801;28;20429;-69
2022/12/08 03:38:16;;;;;;;0.47;0.38;;;;;;;;;;5002322;28;20535;-69
2022/12/08 03:40:42;;;;;;;1.30;0.22;;;;;;;;;;5006428;28;20030;-70
2022/12/08 03:43:08;;;;;;;5.35;0.70;;;;;;;;;;5002042;28;20069;-68
2022/12/08 03:45:34;;;;;;;1.35;0.30;;;;;;;;;;5005005;28;20057;-69
2022/12/08 03:48:00;;;;;;;1.77;0.52;;;;;;;;;;5005421;28;20037;-68
2022/12/08 03:50:27;;;;;;;2.58;0.38;;;;;;;;;;5007388;28;20022;-69
2022/12/08 03:52:53;;;;;;;1.55;0.38;;;;;;;;;;5004577;28;20068;-68
2022/12/08 03:55:20;;;;;;;3.92;0.20;;;;;;;;;;5005075;28;20038;-69
2022/12/08 03:57:46;;;;;;;1.13;0.30;;;;;;;;;;4987424;28;20503;-68
2022/12/08 04:00:14;;;;;;;0.80;0.40;;;;;;;;;;5005815;28;20833;-69
2022/12/08 04:02:40;;;;;;;5.35;0.75;;;;;;;;;;5007176;28;20386;-69
2022/12/08 04:05:07;;;;;;;3.53;0.47;;;;;;;;;;5006644;28;20062;-70
2022/12/08 04:07:33;;;;;;;2.47;1.42;;;;;;;;;;5001955;28;20442;-69
2022/12/08 04:09:59;;;;;;;0.65;0.47;;;;;;;;;;4989000;28;20033;-69
2022/12/08 04:12:25;;;;;;;0.38;0.30;;;;;;;;;;4997747;28;20062;-68
2022/12/08 04:14:51;;;;;;;2.28;0.55;;;;;;;;;;4986454;28;20058;-68
2022/12/08 04:17:17;;;;;;;0.63;0.32;;;;;;;;;;4986439;28;20038;-68
2022/12/08 04:19:43;;;;;;;1.50;0.40;;;;;;;;;;4980907;28;20038;-69
2022/12/08 04:22:09;;;;;;;0.82;0.40;;;;;;;;;;4988225;28;20352;-68
2022/12/08 04:24:35;;;;;;;2.17;0.43;;;;;;;;;;4991097;28;20050;-68
2022/12/08 04:27:01;;;;;;;2.40;0.32;;;;;;;;;;4985233;28;20030;-68
2022/12/08 04:29:27;;;;;;;1.98;0.45;;;;;;;;;;4984893;28;20030;-69
2022/12/08 04:31:53;;;;;;;1.20;0.30;;;;;;;;;;4983644;28;20133;-69
2022/12/08 04:34:19;;;;;;;1.75;0.40;;;;;;;;;;4987377;28;20062;-69
2022/12/08 04:36:45;;;;;;;1.65;0.40;;;;;;;;;;4985819;28;20034;-69
2022/12/08 04:39:11;;;;;;;0.80;0.43;;;;;;;;;;4968396;28;20038;-69
2022/12/08 04:41:37;;;;;;;0.80;0.38;;;;;;;;;;4985494;28;20035;-69
2022/12/08 04:44:03;;;;;;;1.13;0.30;;;;;;;;;;4990508;28;20035;-68
2022/12/08 04:46:29;;;;;;;0.30;0.30;;;;;;;;;;4992635;28;20034;-68
2022/12/08 04:48:55;;;;;;;0.43;0.40;;;;;;;;;;4989794;28;20355;-69
2022/12/08 04:51:21;;;;;;;1.17;0.40;;;;;;;;;;4973686;28;20043;-69
2022/12/08 04:53:48;;;;;;;1.13;0.52;;;;;;;;;;4985818;28;20097;-69
2022/12/08 04:56:18;;;;;;;0.93;0.35;;;;;;;;;;4991097;28;20023;-69
2022/12/08 04:58:45;;;;;;;0.22;0.22;;;;;;;;;;4986841;28;20034;-70
2022/12/08 05:01:11;;;;;;;0.85;0.28;;;;;;;;;;4989829;28;20031;-69
2022/12/08 05:03:37;;;;;;;1.20;0.40;;;;;;;;;;4987621;28;20034;-68
2022/12/08 05:06:03;;;;;;;0.55;0.40;;;;;;;;;;4972079;28;20221;-69
2022/12/08 05:08:29;;;;;;;3.70;0.75;;;;;;;;;;4987397;28;20029;-69
2022/12/08 05:11:05;;;;;;;0.65;0.32;;;;;;;;;;4992144;28;20371;-69
2022/12/08 05:13:31;;;;;;;0.47;0.40;;;;;;;;;;5001852;28;20053;-68
2022/12/08 05:16:04;;;;;;;1.02;0.45;;;;;;;;;;5010901;28;20414;-69
2022/12/08 05:18:30;;;;;;;0.30;0.30;;;;;;;;;;5006135;28;20430;-69
2022/12/08 05:20:56;;;;;;;1.00;0.60;;;;;;;;;;5008208;28;20033;-69
2022/12/08 05:23:23;;;;;;;1.33;0.50;;;;;;;;;;5006174;28;20038;-69
2022/12/08 05:25:49;;;;;;;0.93;0.55;;;;;;;;;;4999806;28;20030;-68
2022/12/08 05:28:15;;;;;;;0.90;0.40;;;;;;;;;;5009908;28;20441;-69
2022/12/08 05:30:41;;;;;;;1.80;0.68;;;;;;;;;;5008408;28;20026;-68
2022/12/08 05:33:07;;;;;;;4.60;2.20;;;;;;;;;;5008471;28;20042;-69
2022/12/08 05:35:33;;;;;;;1.95;1.02;;;;;;;;;;5009474;28;20496;-69
2022/12/08 05:37:59;;;;;;;4.13;0.98;;;;;;;;;;5009696;28;20486;-69
2022/12/08 05:40:25;;;;;;;2.47;0.70;;;;;;;;;;5007633;28;20481;-69
2022/12/08 05:42:52;;;;;;;1.00;0.55;;;;;;;;;;4991122;28;20034;-70
2022/12/08 05:45:18;;;;;;;0.40;0.40;;;;;;;;;;5006804;28;20479;-69
2022/12/08 05:47:44;;;;;;;1.45;0.40;;;;;;;;;;5009887;28;20061;-70
2022/12/08 05:50:10;;;;;;;6.32;3.40;;;;;;;;;;5005797;28;20462;-70
2022/12/08 05:52:36;;;;;;;8.43;3.58;;;;;;;;;;5008782;28;20042;-70
2022/12/08 05:55:02;;;;;;;2.03;1.33;;;;;;;;;;5009016;28;20038;-72
2022/12/08 05:57:28;;;;;;;0.85;0.60;;;;;;;;;;4987049;28;20189;-69
2022/12/08 05:59:55;;;;;;;1.75;0.85;;;;;;;;;;5010156;28;20030;-70
2022/12/08 06:02:21;;;;;;;2.08;1.40;;;;;;;;;;5008760;28;20038;-70
2022/12/08 06:04:48;;;;;;;4.45;1.00;;;;;;;;;;5003523;28;20037;-70
2022/12/08 06:07:14;;;;;;;1.65;1.23;;;;;;;;;;5006311;28;20033;-69
2022/12/08 06:09:40;;;;;;;1.23;1.00;;;;;;;;;;5006665;28;20038;-71
2022/12/08 06:12:06;;;;;;;24.23;8.90;;;;;;;;;;5008675;28;20049;-70
2022/12/08 06:14:32;;;;;;;10.40;2.60;;;;;;;;;;5004913;28;20033;-70
2022/12/08 06:16:58;;;;;;;7.10;2.60;;;;;;;;;;5004890;28;20541;-71
2022/12/08 06:19:24;;;;;;;5.25;2.13;;;;;;;;;;5006516;28;20064;-70
2022/12/08 06:21:50;;;;;;;2.88;1.40;;;;;;;;;;5008699;28;20474;-69
2022/12/08 06:24:16;;;;;;;1.77;1.20;;;;;;;;;;5007183;28;20467;-71
2022/12/08 06:26:42;;;;;;;2.58;1.25;;;;;;;;;;5006998;28;20100;-69
2022/12/08 06:29:08;;;;;;;2.58;1.20;;;;;;;;;;5008103;28;20121;-69
2022/12/08 06:31:34;;;;;;;3.85;1.55;;;;;;;;;;5006797;28;20046;-71
2022/12/08 06:34:00;;;;;;;7.65;3.22;;;;;;;;;;5005545;28;20042;-70
2022/12/08 06:36:27;;;;;;;7.00;2.58;;;;;;;;;;5008894;28;20105;-69
2022/12/08 06:38:53;;;;;;;7.70;2.13;;;;;;;;;;5007410;28;20617;-69
2022/12/08 06:41:19;;;;;;;3.80;2.30;;;;;;;;;;5004452;28;20133;-70
2022/12/08 06:43:45;;;;;;;6.90;2.00;;;;;;;;;;5005975;28;20030;-71
2022/12/08 06:46:13;;;;;;;6.45;1.90;;;;;;;;;;5007201;28;20104;-69
2022/12/08 06:48:39;;;;;;;3.20;2.25;;;;;;;;;;5004989;28;20148;-70
2022/12/08 06:51:15;;;;;;;5.78;1.60;;;;;;;;;;5008618;28;20491;-70
2022/12/08 06:53:42;;;;;;;6.28;2.25;;;;;;;;;;5005487;28;20026;-70
2022/12/08 06:56:08;;;;;;;4.95;2.10;;;;;;;;;;5008987;28;20391;-70
2022/12/08 06:58:35;;;;;;;9.60;2.35;;;;;;;;;;5006291;28;20064;-70
2022/12/08 07:01:07;;;;;;;9.75;2.95;;;;;;;;;;5004008;28;20034;-69
2022/12/08 07:03:34;;;;;;;4.65;2.53;;;;;;;;;;5005880;28;20061;-70
2022/12/08 07:06:00;;;;;;;7.60;2.58;;;;;;;;;;4990210;28;20026;-70
2022/12/08 07:08:26;;;;;;;8.30;2.08;;;;;;;;;;5008341;28;20089;-71
2022/12/08 07:10:52;;;;;;;3.30;2.15;;;;;;;;;;5009434;28;20033;-69
2022/12/08 07:13:18;;;;;;;6.82;2.35;;;;;;;;;;4996288;28;20061;-69
2022/12/08 07:15:44;;;;;;;3.47;2.10;;;;;;;;;;4981911;28;20057;-69
2022/12/08 07:18:10;;;;;;;6.90;1.70;;;;;;;;;;4983454;28;20057;-69
2022/12/08 07:20:36;;;;;;;10.50;2.30;;;;;;;;;;4993270;28;20029;-69
2022/12/08 07:23:02;;;;;;;5.07;1.95;;;;;;;;;;4992460;28;20034;-70
2022/12/08 07:25:29;;;;;;;4.75;2.17;;;;;;;;;;4989102;28;20089;-70
2022/12/08 07:27:55;;;;;;;6.50;2.05;;;;;;;;;;4998553;28;20038;-72
2022/12/08 07:30:21;;;;;;;23.40;10.23;;;;;;;;;;4969249;28;20052;-69
2022/12/08 07:32:47;;;;;;;12.50;5.93;;;;;;;;;;4991406;28;20069;-71
2022/12/08 07:35:13;;;;;;;4.70;2.38;;;;;;;;;;4987955;28;20034;-68
2022/12/08 07:37:39;;;;;;;4.15;2.10;;;;;;;;;;4996567;28;20045;-68
2022/12/08 07:40:06;;;;;;;5.57;2.17;;;;;;;;;;4973045;28;20038;-68
2022/12/08 07:42:32;;;;;;;8.48;2.20;;;;;;;;;;4990407;28;20490;-69
2022/12/08 07:44:59;;;;;;;7.72;1.80;;;;;;;;;;4988626;28;20160;-70
2022/12/08 07:47:25;;;;;;;3.00;1.75;;;;;;;;;;4967905;28;20725;-71
2022/12/08 07:49:51;;;;;;;9.90;2.50;;;;;;;;;;4990199;28;20550;-70
2022/12/08 07:52:18;;;;;;;6.00;3.03;;;;;;;;;;4970696;28;20050;-71
2022/12/08 07:54:44;;;;;;;5.78;2.53;;;;;;;;;;4993674;28;20029;-71
2022/12/08 07:57:10;;;;;;;4.40;2.42;;;;;;;;;;4988709;28;20038;-71
2022/12/08 07:59:36;;;;;;;7.40;1.98;;;;;;;;;;4989416;28;20026;-71
2022/12/08 08:02:03;;;;;;;7.60;2.78;;;;;;;;;;4981485;28;20118;-70
2022/12/08 08:04:29;;;;;;;6.40;3.15;;;;;;;;;;4957965;28;20319;-70
2022/12/08 08:06:55;;;;;;;6.00;2.72;;;;;;;;;;4992720;28;20030;-70
2022/12/08 08:09:21;;;;;;;10.20;3.00;;;;;;;;;;4980713;28;20034;-69
2022/12/08 08:11:47;;;;;;;3.72;2.47;;;;;;;;;;4993036;28;20066;-70
2022/12/08 08:14:13;;;;;;;6.72;3.95;;;;;;;;;;5004985;28;20090;-69
2022/12/08 08:16:45;;;;;;;9.23;4.80;;;;;;;;;;5007627;28;20453;-68
2022/12/08 08:19:11;;;;;;;47.45;22.70;;;;;;;;;;4986354;28;20118;-69
2022/12/08 08:21:37;;;;;;;7.63;2.92;;;;;;;;;;5006409;28;20791;-71
2022/12/08 08:24:03;;;;;;;8.07;2.10;;;;;;;;;;5006731;28;20026;-74
2022/12/08 08:26:29;;;;;;;12.43;2.45;;;;;;;;;;5005562;28;20133;-69
2022/12/08 08:28:55;;;;;;;4.68;1.70;;;;;;;;;;4992688;28;20037;-71
2022/12/08 08:31:25;;;;;;;9.82;2.78;;;;;;;;;;5000961;28;20029;-70
2022/12/08 08:33:51;;;;;;;8.88;3.13;;;;;;;;;;4990039;28;20048;-69
2022/12/08 08:36:18;;;;;;;12.93;3.83;;;;;;;;;;5017706;28;20482;-71
2022/12/08 08:38:44;;;;;;;11.32;3.67;;;;;;;;;;5017010;28;20033;-71
2022/12/08 08:41:10;;;;;;;9.38;4.07;;;;;;;;;;5019634;28;20038;-71
2022/12/08 08:43:37;;;;;;;20.77;5.38;;;;;;;;;;5010818;28;20407;-71
2022/12/08 08:46:04;;;;;;;17.05;5.35;;;;;;;;;;5010085;28;20104;-72
2022/12/08 08:48:30;;;;;;;7.80;3.78;;;;;;;;;;5004376;28;20104;-71
2022/12/08 08:50:57;;;;;;;12.13;3.45;;;;;;;;;;5027536;28;20076;-71
2022/12/08 08:53:24;;;;;;;11.48;4.40;;;;;;;;;;5015739;28;20554;-70
2022/12/08 08:55:50;;;;;;;11.18;4.40;;;;;;;;;;5006809;28;20030;-70
2022/12/08 08:58:16;;;;;;;8.50;3.50;;;;;;;;;;5012860;28;20512;-70
2022/12/08 09:00:42;;;;;;;8.20;3.72;;;;;;;;;;4986697;28;20096;-70
2022/12/08 09:03:09;;;;;;;7.43;4.13;;;;;;;;;;5006267;28;20097;-70
2022/12/08 09:05:37;;;;;;;47.30;26.67;;;;;;;;;;5000161;28;20026;-70
2022/12/08 09:08:03;;;;;;;12.73;7.68;;;;;;;;;;4999478;28;20458;-71
2022/12/08 09:10:29;;;;;;;6.65;4.32;;;;;;;;;;5004805;28;20018;-69
2022/12/08 09:12:55;;;;;;;10.98;2.55;;;;;;;;;;4987932;28;20054;-71
2022/12/08 09:15:21;;;;;;;9.65;3.53;;;;;;;;;;5004314;28;20108;-70
2022/12/08 09:17:47;;;;;;;6.85;2.53;;;;;;;;;;5006509;28;20060;-70
2022/12/08 09:20:13;;;;;;;8.65;5.03;;;;;;;;;;5005486;28;20086;-70
2022/12/08 09:22:39;;;;;;;18.67;9.32;;;;;;;;;;5005639;28;20073;-73
2022/12/08 09:25:05;;;;;;;26.92;12.10;;;;;;;;;;5002752;28;20033;-71
2022/12/08 09:27:31;;;;;;;12.05;5.65;;;;;;;;;;4986850;28;20030;-75
2022/12/08 09:29:57;;;;;;;14.45;5.78;;;;;;;;;;5013158;28;20117;-75
2022/12/08 09:32:24;;;;;;;12.05;5.45;;;;;;;;;;5012338;28;20052;-72
2022/12/08 09:34:50;;;;;;;4.72;2.80;;;;;;;;;;5017272;28;20037;-72
2022/12/08 09:37:16;;;;;;;6.75;3.20;;;;;;;;;;5010984;28;20033;-71
2022/12/08 09:39:42;;;;;;;5.53;2.30;;;;;;;;;;5010775;28;20025;-70
2022/12/08 09:42:09;;;;;;;15.35;2.88;;;;;;;;;;5011583;28;20041;-72
2022/12/08 09:44:43;;;;;;;6.78;1.85;;;;;;;;;;5012279;28;20406;-71
2022/12/08 09:47:17;;;;;;;7.38;2.00;;;;;;;;;;5006523;28;20029;-70
2022/12/08 09:49:48;;;;;;;6.82;1.70;;;;;;;;;;5019145;28;20029;-69
2022/12/08 09:52:26;;;;;;;17.67;7.32;;;;;;;;;;5013054;28;20030;-71
2022/12/08 09:54:52;;;;;;;10.77;5.22;;;;;;;;;;5019583;28;20040;-72
2022/12/08 09:57:20;;;;;;;9.60;4.63;;;;;;;;;;5016402;28;20033;-72
2022/12/08 09:59:48;;;;;;;13.38;3.78;;;;;;;;;;5009945;28;20057;-69
2022/12/08 10:02:23;;;;;;;12.38;3.13;;;;;;;;;;5008600;28;20026;-69
2022/12/08 10:04:49;;;;;;;7.85;2.85;;;;;;;;;;5015668;28;20029;-69
2022/12/08 10:07:24;;;;;;;13.88;3.17;;;;;;;;;;5018213;28;20029;-69
2022/12/08 10:09:50;;;;;;;12.38;2.33;;;;;;;;;;5011000;28;20057;-69
2022/12/08 10:12:32;;;;;;;8.38;1.98;;;;;;;;;;5015329;28;20111;-69
2022/12/08 10:14:58;;;;;;;6.10;2.25;;;;;;;;;;5007750;28;20089;-69
2022/12/08 10:17:24;;;;;;;7.78;2.10;;;;;;;;;;5011546;28;20434;-72
2022/12/08 10:19:55;;;;;;;3.90;1.63;;;;;;;;;;5013761;28;20034;-71
2022/12/08 10:22:22;;;;;;;7.63;1.45;;;;;;;;;;5020818;28;20048;-72
2022/12/08 10:25:06;;;;;;;5.35;1.63;;;;;;;;;;5013257;28;20030;-70
2022/12/08 10:27:35;;;;;;;5.85;1.45;;;;;;;;;;5020476;28;20069;-70
2022/12/08 10:30:01;;;;;;;3.88;1.95;;;;;;;;;;5009495;28;20511;-69
2022/12/08 10:32:33;;;;;;;4.85;1.35;;;;;;;;;;5007236;28;20045;-70
2022/12/08 10:35:06;;;;;;;6.47;1.50;;;;;;;;;;5016667;28;20553;-70
2022/12/08 10:37:31;;;;;;;;;;;;;;;;;;5014186;28;20281;-69
2022/12/08 10:40:00;;;;;;;6.90;1.88;;;;;;;;;;5003385;28;20170;-73
2022/12/08 10:42:29;;;;;;;8.52;2.22;;;;;;;;;;5014966;28;20109;-70
2022/12/08 10:45:04;;;;;;;4.93;1.83;;;;;;;;;;5000043;28;20034;-70
2022/12/08 10:47:34;;;;;;;5.35;1.23;;;;;;;;;;5007031;28;20029;-69
2022/12/08 10:50:20;;;;;;;3.97;1.73;;;;;;;;;;5016136;28;20498;-70
2022/12/08 10:52:54;;;;;;;7.45;1.17;;;;;;;;;;5012952;28;20104;-70
2022/12/08 10:55:20;;;;;;;7.85;1.40;;;;;;;;;;5014371;28;20485;-70
2022/12/08 10:57:50;;;;;;;7.78;1.98;;;;;;;;;;5014053;28;20107;-70
2022/12/08 11:00:17;;;;;;;4.53;1.85;;;;;;;;;;5011424;28;20026;-71
2022/12/08 11:03:00;;;;;;;17.58;7.22;;;;;;;;;;5013395;28;20034;-70
2022/12/08 11:05:28;;;;;;;3.83;1.58;;;;;;;;;;5011495;28;20402;-70
2022/12/08 11:07:55;;;;;;;6.10;1.85;;;;;;;;;;5016002;28;20029;-71
2022/12/08 11:10:26;;;;;;;9.48;1.70;;;;;;;;;;5009741;28;20029;-70
2022/12/08 11:12:52;;;;;;;6.67;1.10;;;;;;;;;;5007429;28;20056;-69
2022/12/08 11:15:19;;;;;;;2.13;1.00;;;;;;;;;;5005006;28;20288;-70
2022/12/08 11:17:48;;;;;;;5.72;1.40;;;;;;;;;;5011218;28;20029;-71
2022/12/08 11:20:14;;;;;;;4.80;1.20;;;;;;;;;;5004168;28;20089;-69
2022/12/08 11:22:41;;;;;;;4.22;0.90;;;;;;;;;;5008495;28;20026;-70
2022/12/08 11:25:09;;;;;;;6.90;1.85;;;;;;;;;;4998216;28;20033;-71
2022/12/08 11:27:36;;;;;;;6.65;0.93;;;;;;;;;;5009956;28;20029;-68
2022/12/08 11:30:06;;;;;;;4.00;1.05;;;;;;;;;;5013194;28;20026;-68
2022/12/08 11:32:33;;;;;;;8.20;1.13;;;;;;;;;;5000519;28;20038;-68
2022/12/08 11:35:03;;;;;;;6.65;1.00;;;;;;;;;;5011588;28;20040;-72
2022/12/08 11:37:33;;;;;;;8.45;1.23;;;;;;;;;;5006351;28;20025;-71
2022/12/08 11:40:00;;;;;;;5.40;0.95;;;;;;;;;;5011045;28;20176;-69
2022/12/08 11:42:30;;;;;;;3.22;0.90;;;;;;;;;;5015581;28;20037;-69
2022/12/08 11:45:22;;;;;;;8.30;1.15;;;;;;;;;;5011683;28;20037;-71
2022/12/08 11:48:06;;;;;;;2.83;0.75;;;;;;;;;;5016523;28;20047;-69
2022/12/08 11:50:41;;;;;;;4.47;0.80;;;;;;;;;;5011244;28;20045;-70
2022/12/08 11:53:13;;;;;;;4.22;1.00;;;;;;;;;;5015427;28;20092;-69
2022/12/08 11:55:50;;;;;;;7.00;1.05;;;;;;;;;;5004464;28;20056;-73
2022/12/08 11:58:18;;;;;;;4.38;1.40;;;;;;;;;;5009331;28;20037;-72
2022/12/08 12:00:44;;;;;;;3.78;0.95;;;;;;;;;;4993103;28;20121;-71
2022/12/08 12:03:36;;;;;;;1.92;1.05;;;;;;;;;;4987062;28;20057;-69
2022/12/08 12:06:25;;;;;;;4.85;1.27;;;;;;;;;;5002478;28;20034;-69
2022/12/08 12:08:51;;;;;;;3.33;1.42;;;;;;;;;;5007491;28;20724;-71
2022/12/08 12:12:12;;;;;;;4.10;1.63;;;;;;;;;;5004031;28;20022;-72
2022/12/08 12:14:26;;;;;;;4.47;1.58;;;;;;;;;;4997627;28;20590;-70
2022/12/08 12:16:59;;;;;;;8.13;2.13;;;;;;;;;;4988995;28;20376;-70
2022/12/08 12:19:27;;;;;;;8.40;1.83;;;;;;;;;;4990073;28;20114;-69
2022/12/08 12:21:56;;;;;;;4.35;1.52;;;;;;;;;;4990120;28;20093;-69
2022/12/08 12:24:25;;;;;;;4.68;1.42;;;;;;;;;;4995356;28;20026;-69
2022/12/08 12:26:57;;;;;;;7.57;1.88;;;;;;;;;;4989447;28;20058;-70
2022/12/08 12:29:24;;;;;;;8.13;2.65;;;;;;;;;;4987677;28;20038;-71
2022/12/08 12:31:57;;;;;;;5.28;2.10;;;;;;;;;;4988974;28;20042;-70
2022/12/08 12:34:23;;;;;;;1.88;0.70;;;;;;;;;;4969356;28;20180;-69
2022/12/08 12:36:50;;;;;;;1.95;0.63;;;;;;;;;;4987368;28;20117;-72
2022/12/08 12:39:20;;;;;;;2.30;0.98;;;;;;;;;;4991406;28;20015;-69
2022/12/08 12:41:51;;;;;;;3.63;1.15;;;;;;;;;;4989741;28;20060;-70
2022/12/08 12:44:17;;;;;;;1.52;0.85;;;;;;;;;;4989760;28;20023;-69
2022/12/08 12:46:49;;;;;;;2.97;1.00;;;;;;;;;;4990105;28;20031;-69
2022/12/08 12:49:33;;;;;;;1.70;0.68;;;;;;;;;;4989778;28;20026;-69
2022/12/08 12:51:59;;;;;;;5.50;1.70;;;;;;;;;;4967802;28;20038;-70
2022/12/08 12:54:27;;;;;;;3.90;1.17;;;;;;;;;;4982887;28;20027;-70
2022/12/08 12:56:53;;;;;;;6.63;1.67;;;;;;;;;;4988196;28;20030;-70
2022/12/08 12:59:30;;;;;;;4.00;0.75;;;;;;;;;;4990382;28;20027;-73
2022/12/08 13:01:57;;;;;;;2.20;1.33;;;;;;;;;;4988915;28;20030;-71
2022/12/08 13:04:34;;;;;;;5.25;1.70;;;;;;;;;;4993168;28;20039;-70
2022/12/08 13:07:00;;;;;;;3.88;1.10;;;;;;;;;;4993590;28;20376;-71
2022/12/08 13:09:28;;;;;;;5.68;0.80;;;;;;;;;;4974030;28;20022;-70
2022/12/08 13:11:56;;;;;;;3.45;0.77;;;;;;;;;;4976577;28;20042;-69
2022/12/08 13:14:27;;;;;;;3.67;0.70;;;;;;;;;;5022270;28;20049;-69
2022/12/08 13:16:55;;;;;;;5.28;0.80;;;;;;;;;;5012105;28;20044;-71
2022/12/08 13:19:21;;;;;;;4.00;0.80;;;;;;;;;;5023354;28;20236;-70
2022/12/08 13:21:47;;;;;;;1.38;0.60;;;;;;;;;;5013214;28;20029;-71
2022/12/08 13:24:19;;;;;;;2.50;0.80;;;;;;;;;;5012997;28;20056;-70
2022/12/08 13:26:49;;;;;;;3.17;0.98;;;;;;;;;;5009141;28;20029;-70
2022/12/08 13:29:25;;;;;;;5.43;0.82;;;;;;;;;;5013138;28;20065;-70
2022/12/08 13:31:54;;;;;;;4.00;0.93;;;;;;;;;;5020497;28;20044;-70
2022/12/08 13:34:35;;;;;;;3.63;0.77;;;;;;;;;;5026688;28;20053;-69
2022/12/08 13:37:10;;;;;;;5.97;1.02;;;;;;;;;;5022522;28;20173;-71
2022/12/08 13:39:40;;;;;;;2.40;0.80;;;;;;;;;;5003545;28;20458;-70
2022/12/08 13:42:12;;;;;;;5.78;1.00;;;;;;;;;;5015866;28;20509;-70
2022/12/08 13:44:46;;;;;;;2.53;1.13;;;;;;;;;;5024897;28;20029;-70
2022/12/08 13:47:22;;;;;;;5.25;1.13;;;;;;;;;;5014555;28;20125;-69
2022/12/08 13:49:58;;;;;;;4.28;1.00;;;;;;;;;;5022053;28;20037;-71
2022/12/08 13:52:35;;;;;;;2.75;1.10;;;;;;;;;;5014511;28;20034;-69
2022/12/08 13:55:02;;;;;;;3.95;1.00;;;;;;;;;;5018658;28;20755;-69
2022/12/08 13:57:28;;;;;;;8.43;1.52;;;;;;;;;;5019405;28;20056;-69
2022/12/08 13:59:59;;;;;;;3.80;1.48;;;;;;;;;;5016512;28;20030;-72
2022/12/08 14:02:25;;;;;;;5.00;1.80;;;;;;;;;;5017035;28;20030;-70
2022/12/08 14:04:51;;;;;;;5.45;2.40;;;;;;;;;;5023736;28;20060;-73
2022/12/08 14:07:17;;;;;;;4.13;1.88;;;;;;;;;;5010283;28;20049;-70
2022/12/08 14:09:43;;;;;;;3.88;1.45;;;;;;;;;;5008755;28;20034;-71
2022/12/08 14:12:18;;;;;;;5.03;1.08;;;;;;;;;;5017960;28;20144;-70
2022/12/08 14:14:50;;;;;;;1.80;0.80;;;;;;;;;;5007891;28;20041;-69
2022/12/08 14:17:20;;;;;;;4.57;0.90;;;;;;;;;;5013484;28;20026;-68
2022/12/08 14:19:53;;;;;;;7.75;2.10;;;;;;;;;;5031575;28;20087;-70
2022/12/08 14:22:19;;;;;;;;;;;;;;;;;;5015765;28;20036;-69
2022/12/08 14:24:46;;;;;;;7.70;1.63;;;;;;;;;;5015156;28;19909;-68
2022/12/08 14:27:15;;;;;;;1.65;0.98;;;;;;;;;;5021157;28;20049;-68
2022/12/08 14:29:41;;;;;;;8.70;1.10;;;;;;;;;;5013470;28;20037;-72
2022/12/08 14:32:27;;;;;;;6.20;1.88;;;;;;;;;;5015905;28;20111;-69
2022/12/08 14:34:58;;;;;;;6.15;2.45;;;;;;;;;;5010770;28;20033;-70
2022/12/08 14:37:30;;;;;;;6.85;1.60;;;;;;;;;;5015558;28;20021;-70
2022/12/08 14:40:18;;;;;;;6.15;1.92;;;;;;;;;;5014276;28;20101;-70
2022/12/08 14:42:50;;;;;;;6.40;1.10;;;;;;;;;;5008951;28;20036;-70
2022/12/08 14:45:17;;;;;;;7.03;1.90;;;;;;;;;;5018648;28;20041;-70
2022/12/08 14:47:44;;;;;;;13.77;5.78;;;;;;;;;;5022378;28;20557;-70
2022/12/08 14:50:29;;;;;;;8.10;4.35;;;;;;;;;;5008910;28;20048;-68
2022/12/08 14:52:55;;;;;;;4.38;1.10;;;;;;;;;;5011325;28;20049;-70
2022/12/08 14:55:21;;;;;;;2.47;0.80;;;;;;;;;;5013189;28;20053;-69
2022/12/08 14:57:48;;;;;;;3.90;1.05;;;;;;;;;;5004713;28;20477;-71